Time;durP1;ratioP1;P1;durP2;ratioP2;P2;SDS_P1;SDS_P2;PMS_P1;PMS_P2;Temp;Humidity;BMP_temperature;BMP_pressure;BME280_temperature;BME280_humidity;BME280_pressure;Samples;Min_cycle;Max_cycle;Signal;HPM_P1;HPM_P2
2022/06/13 00:01:52;;;;;;;3.15;2.00;;;19.60;89.60;;;;;;5031046;28;20046;-71
2022/06/13 00:04:56;;;;;;;2.95;1.83;;;19.50;87.90;;;;;;5031994;28;20376;-71
2022/06/13 00:08:00;;;;;;;4.57;1.60;;;19.60;87.10;;;;;;5011905;28;20056;-71
2022/06/13 00:11:11;;;;;;;2.25;1.65;;;19.70;85.90;;;;;;5011439;28;20385;-71
2022/06/13 00:14:15;;;;;;;1.67;1.40;;;19.80;85.10;;;;;;5011892;28;20053;-71
2022/06/13 00:17:20;;;;;;;4.18;1.70;;;19.80;84.60;;;;;;5028265;28;20377;-72
2022/06/13 00:20:25;;;;;;;3.65;1.52;;;19.80;84.20;;;;;;5030830;28;20125;-71
2022/06/13 00:23:29;;;;;;;4.82;1.90;;;19.90;83.80;;;;;;5031199;28;20049;-72
2022/06/13 00:26:34;;;;;;;4.35;1.60;;;20.00;83.20;;;;;;5010838;28;20068;-71
2022/06/13 00:29:39;;;;;;;4.43;1.73;;;20.10;82.60;;;;;;5017863;28;20052;-71
2022/06/13 00:32:44;;;;;;;3.38;1.40;;;20.20;81.20;;;;;;5031029;28;20048;-70
2022/06/13 00:35:48;;;;;;;2.33;1.80;;;20.20;80.90;;;;;;5030980;28;20048;-71
2022/06/13 00:38:54;;;;;;;5.55;2.10;;;19.90;85.30;;;;;;5025779;28;20585;-71
2022/06/13 00:41:58;;;;;;;4.70;2.00;;;19.50;88.40;;;;;;5029621;28;20040;-71
2022/06/13 00:45:17;;;;;;;2.60;1.90;;;19.30;89.90;;;;;;5011299;28;20049;-71
2022/06/13 00:48:27;;;;;;;2.83;1.90;;;19.20;90.30;;;;;;5024754;28;20045;-71
2022/06/13 00:51:34;;;;;;;3.47;1.75;;;19.10;90.70;;;;;;5026481;28;20040;-71
2022/06/13 00:54:41;;;;;;;3.05;2.15;;;19.00;90.50;;;;;;5031208;28;20045;-71
2022/06/13 00:57:45;;;;;;;4.35;2.03;;;19.00;90.90;;;;;;5010071;28;20037;-71
2022/06/13 01:00:54;;;;;;;2.50;2.10;;;19.00;90.80;;;;;;5017404;28;20044;-70
2022/06/13 01:04:02;;;;;;;3.35;2.10;;;19.00;90.60;;;;;;5030625;28;20036;-70
2022/06/13 01:07:09;;;;;;;2.78;2.20;;;18.90;90.30;;;;;;5028939;28;20049;-71
2022/06/13 01:13:42;;;;;;;3.33;1.95;;;18.90;87.10;;;;;;5028618;28;20057;-71
2022/06/13 01:16:55;;;;;;;1.98;1.73;;;19.00;87.30;;;;;;5014693;28;20053;-71
2022/06/13 01:20:20;;;;;;;6.00;1.67;;;19.10;87.60;;;;;;5014430;28;20041;-71
2022/06/13 01:23:46;;;;;;;4.38;1.80;;;19.10;86.70;;;;;;5026399;28;20041;-71
2022/06/13 01:27:12;;;;;;;2.22;1.42;;;19.20;86.30;;;;;;5030334;28;20049;-70
2022/06/13 01:30:34;;;;;;;2.33;2.00;;;19.20;86.90;;;;;;5014931;28;20057;-72
2022/06/13 01:33:59;;;;;;;2.00;1.80;;;19.10;89.30;;;;;;5014456;28;20053;-71
2022/06/13 01:37:33;;;;;;;2.78;1.70;;;18.70;88.30;;;;;;5023447;28;20049;-71
2022/06/13 01:40:47;;;;;;;2.33;1.90;;;18.70;88.80;;;;;;5033560;28;20614;-71
2022/06/13 01:43:51;;;;;;;5.38;2.08;;;18.70;89.50;;;;;;5034661;28;20048;-70
2022/06/13 01:47:08;;;;;;;4.70;2.35;;;18.60;90.00;;;;;;5015772;28;20056;-71
2022/06/13 01:50:30;;;;;;;2.35;2.10;;;18.60;92.00;;;;;;5013453;28;20045;-70
2022/06/13 01:53:57;;;;;;;6.75;2.67;;;18.50;92.20;;;;;;5013292;28;20441;-71
2022/06/13 01:57:39;;;;;;;5.85;2.28;;;18.30;93.00;;;;;;5013789;28;20049;-71
2022/06/13 02:00:47;;;;;;;;;;;18.20;93.60;;;;;;5015032;28;20061;-72
2022/06/13 02:04:00;;;;;;;2.83;2.20;;;18.10;93.80;;;;;;5013611;28;19913;-71
2022/06/13 02:07:15;;;;;;;8.70;2.25;;;18.00;94.30;;;;;;5016590;28;20048;-71
2022/06/13 02:10:25;;;;;;;5.40;2.25;;;18.00;94.20;;;;;;5014159;28;20049;-71
2022/06/13 02:13:49;;;;;;;4.07;2.28;;;18.00;94.20;;;;;;5013437;28;20061;-71
2022/06/13 02:17:12;;;;;;;4.68;2.88;;;18.00;94.60;;;;;;5012344;28;20513;-71
2022/06/13 02:20:22;;;;;;;3.28;2.25;;;18.00;94.50;;;;;;5013056;28;20384;-71
2022/06/13 02:23:32;;;;;;;5.35;2.15;;;18.10;94.30;;;;;;5013233;28;20045;-71
2022/06/13 02:26:37;;;;;;;4.63;2.30;;;18.10;94.10;;;;;;5012429;28;20041;-71
2022/06/13 02:29:48;;;;;;;3.13;2.03;;;18.20;94.00;;;;;;5013115;28;20062;-71
2022/06/13 02:32:57;;;;;;;3.28;2.00;;;18.20;93.90;;;;;;5014035;28;20057;-71
2022/06/13 02:36:36;;;;;;;5.75;2.20;;;18.20;93.40;;;;;;5012492;28;20041;-71
2022/06/13 02:39:56;;;;;;;3.97;2.20;;;18.20;92.70;;;;;;5021950;28;20052;-71
2022/06/13 02:43:18;;;;;;;2.28;1.73;;;18.30;92.50;;;;;;5033355;28;20048;-71
2022/06/13 02:46:30;;;;;;;4.53;2.35;;;18.20;94.10;;;;;;5032995;28;20056;-71
2022/06/13 02:50:02;;;;;;;5.28;2.60;;;17.80;96.40;;;;;;5028999;28;20044;-71
2022/06/13 02:53:08;;;;;;;4.03;2.85;;;17.40;98.70;;;;;;5018808;28;20053;-71
2022/06/13 02:57:23;;;;;;;3.45;2.67;;;17.30;99.00;;;;;;5012016;28;20515;-71
2022/06/13 03:00:19;;;;;;;2.78;2.40;;;17.30;99.60;;;;;;5010312;28;20053;-71
2022/06/13 03:03:44;;;;;;;6.03;3.00;;;17.10;99.90;;;;;;5013209;28;20053;-71
2022/06/13 03:07:08;;;;;;;3.15;2.78;;;17.00;99.90;;;;;;5011920;28;20064;-71
2022/06/13 03:10:17;;;;;;;10.05;3.20;;;17.00;99.90;;;;;;5018480;28;20052;-71
2022/06/13 03:13:47;;;;;;;3.88;2.88;;;17.00;99.90;;;;;;5033154;28;20056;-72
2022/06/13 03:17:00;;;;;;;4.43;2.38;;;17.00;99.90;;;;;;5012340;28;20377;-71
2022/06/13 03:20:16;;;;;;;4.53;2.88;;;16.90;99.90;;;;;;5021354;28;20029;-71
2022/06/13 03:23:29;;;;;;;3.15;2.70;;;16.80;99.90;;;;;;5032571;28;20476;-71
2022/06/13 03:26:43;;;;;;;7.65;3.60;;;16.70;99.90;;;;;;5012019;28;20053;-71
2022/06/13 03:29:54;;;;;;;7.57;3.20;;;16.70;99.90;;;;;;5012531;28;20404;-71
2022/06/13 03:36:43;;;;;;;7.70;3.25;;;16.70;99.90;;;;;;5030992;28;20384;-71
2022/06/13 03:40:02;;;;;;;4.82;2.47;;;16.60;99.90;;;;;;5012438;28;20029;-71
2022/06/13 03:43:28;;;;;;;5.93;2.83;;;16.60;99.90;;;;;;5010634;28;20488;-71
2022/06/13 03:46:40;;;;;;;5.10;3.35;;;16.70;99.90;;;;;;5011082;28;20049;-71
2022/06/13 03:50:18;;;;;;;6.15;3.60;;;16.70;99.90;;;;;;5011511;28;20049;-71
2022/06/13 03:53:37;;;;;;;5.53;2.90;;;16.80;99.90;;;;;;5032018;28;20392;-71
2022/06/13 03:56:50;;;;;;;5.18;3.28;;;16.80;99.90;;;;;;5027146;28;20120;-70
2022/06/13 04:00:01;;;;;;;4.43;3.45;;;16.90;99.90;;;;;;5024794;28;20041;-71
2022/06/13 04:03:09;;;;;;;7.10;3.53;;;16.90;99.90;;;;;;5011655;28;20036;-71
2022/06/13 04:06:33;;;;;;;6.40;3.42;;;16.80;99.90;;;;;;5011421;28;20053;-71
2022/06/13 04:09:43;;;;;;;4.72;3.90;;;16.80;99.90;;;;;;5023241;28;20052;-71
2022/06/13 04:13:19;;;;;;;6.80;4.40;;;16.90;99.90;;;;;;5030460;28;20056;-71
2022/06/13 04:16:27;;;;;;;7.45;4.18;;;17.00;99.90;;;;;;5030756;28;20538;-72
2022/06/13 04:20:16;;;;;;;8.77;5.07;;;17.10;99.90;;;;;;5029901;28;20036;-71
2022/06/13 04:23:50;;;;;;;5.30;4.40;;;17.10;99.90;;;;;;5016672;28;20060;-71
2022/06/13 04:27:05;;;;;;;7.13;4.55;;;17.10;99.90;;;;;;5010131;28;20048;-71
2022/06/13 04:30:15;;;;;;;8.75;4.55;;;18.00;99.90;;;;;;5011471;28;20365;-71
2022/06/13 04:33:36;;;;;;;8.27;4.43;;;19.90;99.90;;;;;;5011287;28;20748;-71
2022/06/13 04:36:42;;;;;;;5.35;4.25;;;21.70;99.90;;;;;;5009949;28;20500;-72
2022/06/13 04:39:49;;;;;;;7.95;3.90;;;23.20;99.90;;;;;;5010765;28;20053;-71
2022/06/13 04:42:55;;;;;;;4.68;4.00;;;24.10;99.90;;;;;;5011512;28;20381;-71
2022/06/13 04:46:02;;;;;;;5.97;3.97;;;25.30;97.40;;;;;;5010408;28;20049;-71
2022/06/13 04:49:20;;;;;;;7.20;3.83;;;25.40;96.10;;;;;;5015678;28;20048;-71
2022/06/13 04:52:27;;;;;;;3.63;3.05;;;25.20;95.80;;;;;;5030870;28;20048;-71
2022/06/13 04:55:46;;;;;;;7.10;3.63;;;25.10;95.40;;;;;;5011235;28;20073;-71
2022/06/13 04:58:53;;;;;;;3.88;2.67;;;25.60;95.00;;;;;;5025695;28;20036;-71
2022/06/13 05:02:00;;;;;;;7.22;3.33;;;26.30;94.20;;;;;;5029794;28;20045;-71
2022/06/13 05:05:08;;;;;;;8.25;3.40;;;25.60;93.80;;;;;;5030923;28;20060;-72
2022/06/13 05:08:28;;;;;;;6.25;3.58;;;25.20;94.80;;;;;;5029343;28;20049;-72
2022/06/13 05:11:38;;;;;;;6.38;3.40;;;25.40;94.70;;;;;;5024564;28;20049;-71
2022/06/13 05:14:46;;;;;;;8.43;3.47;;;26.50;94.10;;;;;;5010716;28;20492;-71
2022/06/13 05:18:11;;;;;;;5.13;3.17;;;26.00;93.10;;;;;;5010281;28;20049;-71
2022/06/13 05:21:34;;;;;;;6.72;3.40;;;25.10;94.60;;;;;;5010436;28;20376;-71
2022/06/13 05:24:47;;;;;;;5.95;2.95;;;25.70;94.30;;;;;;5013069;28;20056;-71
2022/06/13 05:27:53;;;;;;;3.72;3.20;;;25.90;94.00;;;;;;5030460;28;20056;-71
2022/06/13 05:31:01;;;;;;;3.80;3.30;;;27.20;93.00;;;;;;5028124;28;20049;-72
2022/06/13 05:34:13;;;;;;;11.60;5.13;;;27.10;91.80;;;;;;5029738;28;20052;-72
2022/06/13 05:37:17;;;;;;;7.88;3.70;;;27.80;91.60;;;;;;5029679;28;20052;-71
2022/06/13 05:40:22;;;;;;;28.30;18.20;;;28.50;91.10;;;;;;5010727;28;20041;-71
2022/06/13 05:43:27;;;;;;;24.85;15.80;;;29.00;89.70;;;;;;5019640;28;20485;-71
2022/06/13 05:46:33;;;;;;;16.45;10.57;;;28.60;88.90;;;;;;5026790;28;20586;-71
2022/06/13 05:49:37;;;;;;;19.52;11.13;;;28.20;90.00;;;;;;5010732;28;20041;-71
2022/06/13 05:52:41;;;;;;;20.55;12.52;;;28.30;89.70;;;;;;5009813;28;20476;-71
2022/06/13 05:55:45;;;;;;;16.00;10.43;;;28.80;88.60;;;;;;5010705;28;20393;-71
2022/06/13 05:58:49;;;;;;;16.77;10.38;;;29.20;86.20;;;;;;5033157;28;20535;-71
2022/06/13 06:01:53;;;;;;;14.73;9.90;;;28.60;88.60;;;;;;5019016;28;20053;-70
2022/06/13 06:04:57;;;;;;;15.43;8.48;;;27.90;89.10;;;;;;5017479;28;20045;-71
2022/06/13 06:08:02;;;;;;;14.65;8.20;;;27.20;89.80;;;;;;5013313;28;20049;-71
2022/06/13 06:11:05;;;;;;;21.13;8.40;;;28.10;88.30;;;;;;5013922;28;20053;-71
2022/06/13 06:14:09;;;;;;;16.17;6.50;;;29.40;87.10;;;;;;5012812;28;20040;-71
2022/06/13 06:17:13;;;;;;;10.85;6.57;;;30.40;85.40;;;;;;5012499;28;20057;-70
2022/06/13 06:20:20;;;;;;;9.93;4.47;;;31.00;84.10;;;;;;5031382;28;20044;-71
2022/06/13 06:23:24;;;;;;;6.57;4.10;;;31.40;84.30;;;;;;5028985;28;20052;-70
2022/06/13 06:26:29;;;;;;;6.63;4.35;;;31.50;83.80;;;;;;5027665;28;20056;-71
2022/06/13 06:29:33;;;;;;;6.00;3.38;;;31.70;83.00;;;;;;5032719;28;20048;-71
2022/06/13 06:32:37;;;;;;;5.28;3.00;;;31.50;83.60;;;;;;5029292;28;20668;-71
2022/06/13 06:35:42;;;;;;;5.15;2.65;;;31.70;82.50;;;;;;5021009;28;20066;-71
2022/06/13 06:38:47;;;;;;;6.25;2.88;;;32.00;81.80;;;;;;5030607;28;20040;-71
2022/06/13 06:41:51;;;;;;;4.55;2.50;;;32.60;81.40;;;;;;5026730;28;20112;-71
2022/06/13 06:44:55;;;;;;;4.35;2.47;;;33.00;80.70;;;;;;5022981;28;20555;-71
2022/06/13 06:48:00;;;;;;;3.55;2.10;;;33.20;80.10;;;;;;5022792;28;20036;-70
2022/06/13 06:51:10;;;;;;;11.00;2.53;;;33.60;79.70;;;;;;5024003;28;20427;-71
2022/06/13 07:01:04;;;;;;;11.90;3.33;;;34.20;76.70;;;;;;5039493;28;20038;-71
2022/06/13 07:04:08;;;;;;;6.18;2.65;;;34.70;76.10;;;;;;5028663;28;20053;-71
2022/06/13 07:07:13;;;;;;;7.35;2.78;;;34.90;74.50;;;;;;5026125;28;20060;-71
2022/06/13 07:10:18;;;;;;;4.45;2.60;;;34.70;74.70;;;;;;5021919;28;20057;-71
2022/06/13 07:13:22;;;;;;;7.50;2.60;;;34.30;75.80;;;;;;5019483;28;20060;-70
2022/06/13 07:16:26;;;;;;;6.65;2.58;;;31.50;78.90;;;;;;5030305;28;20053;-71
2022/06/13 07:19:32;;;;;;;8.73;2.88;;;29.80;80.70;;;;;;5025514;28;20041;-71
2022/06/13 07:22:35;;;;;;;5.95;2.58;;;31.30;80.10;;;;;;5024889;28;20049;-72
2022/06/13 07:25:40;;;;;;;8.77;3.08;;;32.80;78.80;;;;;;5028996;28;20056;-70
2022/06/13 07:28:44;;;;;;;5.70;2.60;;;32.30;79.30;;;;;;5026533;28;20056;-72
2022/06/13 07:32:05;;;;;;;8.27;2.22;;;33.00;78.70;;;;;;5016938;28;20041;-71
2022/06/13 07:35:13;;;;;;;4.85;2.15;;;33.90;77.20;;;;;;5018362;28;20830;-71
2022/06/13 07:38:18;;;;;;;3.78;2.40;;;34.50;75.70;;;;;;5024587;28;20056;-69
2022/06/13 07:41:25;;;;;;;4.00;2.03;;;34.00;74.20;;;;;;5028279;28;20056;-69
2022/06/13 07:44:36;;;;;;;8.65;2.42;;;32.90;78.40;;;;;;5019444;28;20033;-71
2022/06/13 07:47:42;;;;;;;6.20;2.15;;;34.80;76.70;;;;;;5011264;28;20421;-70
2022/06/13 07:50:46;;;;;;;5.88;1.90;;;36.40;74.00;;;;;;5021745;28;20423;-70
2022/06/13 07:53:52;;;;;;;6.38;1.52;;;37.80;73.30;;;;;;5011814;28;20053;-72
2022/06/13 07:56:56;;;;;;;3.10;1.60;;;38.40;71.10;;;;;;5028686;28;20052;-71
2022/06/13 08:00:00;;;;;;;3.35;1.55;;;38.60;70.40;;;;;;5029526;28;20037;-71
2022/06/13 08:03:06;;;;;;;4.18;1.70;;;39.50;68.60;;;;;;5032498;28;20064;-72
2022/06/13 08:06:10;;;;;;;3.20;1.38;;;40.20;68.50;;;;;;5026036;28;20048;-71
2022/06/13 08:09:15;;;;;;;2.13;1.30;;;40.60;65.90;;;;;;5023582;28;20048;-72
2022/06/13 08:12:20;;;;;;;3.15;1.13;;;41.30;63.90;;;;;;5021193;28;20053;-70
2022/06/13 08:15:24;;;;;;;2.47;1.05;;;41.80;63.80;;;;;;5022178;28;20487;-70
2022/06/13 08:18:29;;;;;;;1.00;0.90;;;42.20;62.10;;;;;;5011032;28;20068;-71
2022/06/13 08:21:35;;;;;;;1.63;1.23;;;42.10;62.40;;;;;;5025743;28;20052;-70
2022/06/13 08:24:39;;;;;;;2.90;1.08;;;42.50;61.60;;;;;;5020555;28;20052;-70
2022/06/13 08:27:43;;;;;;;2.58;0.90;;;41.90;59.60;;;;;;5029647;28;20052;-71
2022/06/13 08:30:53;;;;;;;2.60;1.20;;;37.70;62.00;;;;;;5027069;28;20040;-68
2022/06/13 08:33:57;;;;;;;3.15;1.17;;;38.80;63.60;;;;;;5018241;28;20404;-70
2022/06/13 08:37:01;;;;;;;10.20;1.42;;;39.90;63.70;;;;;;5019497;28;20503;-69
2022/06/13 08:40:07;;;;;;;1.75;1.00;;;40.80;62.80;;;;;;5018553;28;20032;-70
2022/06/13 08:43:32;;;;;;;4.15;1.00;;;39.60;60.70;;;;;;5020191;28;20041;-68
2022/06/13 08:46:58;;;;;;;7.55;1.35;;;37.50;59.70;;;;;;5028403;28;20049;-70
2022/06/13 08:50:24;;;;;;;4.18;1.10;;;37.70;62.80;;;;;;5025439;28;20048;-68
2022/06/13 08:53:38;;;;;;;3.83;1.13;;;36.70;62.60;;;;;;5022654;28;20056;-70
2022/06/13 08:56:43;;;;;;;4.82;1.20;;;37.40;64.00;;;;;;5016149;28;20388;-68
2022/06/13 09:00:05;;;;;;;5.43;1.30;;;39.00;61.90;;;;;;5022663;28;20045;-69
2022/06/13 09:03:18;;;;;;;3.80;1.42;;;36.60;64.20;;;;;;5010842;28;20052;-68
2022/06/13 09:06:45;;;;;;;2.45;1.13;;;36.50;65.20;;;;;;5026547;28;20408;-70
2022/06/13 09:10:01;;;;;;;2.55;0.88;;;34.80;66.70;;;;;;5010558;28;20040;-71
2022/06/13 09:13:41;;;;;;;1.30;1.00;;;37.10;64.50;;;;;;5023226;28;20108;-70
2022/06/13 09:17:17;;;;;;;1.83;0.80;;;38.10;62.00;;;;;;5025367;28;20041;-70
2022/06/13 09:20:47;;;;;;;1.83;1.15;;;40.30;60.90;;;;;;5018376;28;20040;-70
2022/06/13 09:24:07;;;;;;;4.53;1.25;;;42.70;60.20;;;;;;5020145;28;20037;-70
2022/06/13 09:27:18;;;;;;;1.00;0.80;;;43.80;58.20;;;;;;5016607;28;20036;-71
2022/06/13 09:30:34;;;;;;;2.90;0.90;;;44.70;56.60;;;;;;5026559;28;20057;-70
2022/06/13 09:33:54;;;;;;;3.13;1.00;;;44.90;56.30;;;;;;5028467;28;20044;-70
2022/06/13 09:37:09;;;;;;;;;;;45.50;56.90;;;;;;5030736;28;20053;-71
2022/06/13 09:40:27;;;;;;;1.10;1.00;;;44.60;55.30;;;;;;5022386;28;19917;-71
2022/06/13 09:43:51;;;;;;;4.22;0.80;;;41.60;56.30;;;;;;5029845;28;20045;-71
2022/06/13 09:47:01;;;;;;;2.03;0.80;;;41.50;56.70;;;;;;5022885;28;20064;-71
2022/06/13 09:50:16;;;;;;;4.43;1.37;;;40.90;57.40;;;;;;5025514;28;20379;-71
2022/06/13 09:53:57;;;;;;;1.58;0.90;;;40.00;57.20;;;;;;5022555;28;20092;-73
2022/06/13 09:57:05;;;;;;;3.70;0.98;;;39.60;57.80;;;;;;5022186;28;20040;-72
2022/06/13 10:00:50;;;;;;;4.55;1.10;;;38.00;58.80;;;;;;5026999;28;20045;-72
2022/06/13 10:03:57;;;;;;;5.68;1.10;;;37.40;60.80;;;;;;5028434;28;20037;-72
2022/06/13 10:07:22;;;;;;;1.27;0.95;;;38.40;60.00;;;;;;5027991;28;20053;-71
2022/06/13 10:10:44;;;;;;;2.17;1.08;;;35.60;60.40;;;;;;5028986;28;20502;-72
2022/06/13 10:14:10;;;;;;;1.90;1.02;;;36.70;58.80;;;;;;5022387;28;20507;-72
2022/06/13 10:17:14;;;;;;;4.30;1.20;;;38.20;56.90;;;;;;5016682;28;20037;-73
2022/06/13 10:20:36;;;;;;;3.38;1.05;;;39.00;57.80;;;;;;5015152;28;20037;-71
2022/06/13 10:23:44;;;;;;;2.55;1.02;;;39.40;57.50;;;;;;5028744;28;20029;-72
2022/06/13 10:26:51;;;;;;;1.45;0.95;;;40.80;55.40;;;;;;5019395;28;20491;-71
2022/06/13 10:31:06;;;;;;;1.13;1.00;;;40.60;56.90;;;;;;5022805;28;20072;-71
2022/06/13 10:34:14;;;;;;;1.58;1.00;;;42.70;55.70;;;;;;4930065;29;20051;-69
2022/06/13 10:37:25;;;;;;;6.78;1.33;;;40.70;54.90;;;;;;4917747;28;20047;-71
2022/06/13 10:40:32;;;;;;;2.13;0.88;;;43.30;54.70;;;;;;5027910;28;20052;-67
2022/06/13 10:43:42;;;;;;;1.98;0.80;;;43.50;53.60;;;;;;5037861;28;20055;-69
2022/06/13 10:46:51;;;;;;;3.63;1.20;;;42.00;54.10;;;;;;5027261;28;20060;-69
2022/06/13 10:50:07;;;;;;;2.20;1.10;;;42.30;55.50;;;;;;5027527;28;20044;-69
2022/06/13 10:53:38;;;;;;;1.85;0.98;;;40.50;54.70;;;;;;5023150;28;20052;-69
2022/06/13 10:56:52;;;;;;;3.80;1.63;;;39.40;56.60;;;;;;5023694;28;20491;-70
2022/06/13 11:00:15;;;;;;;2.58;1.15;;;38.50;57.20;;;;;;5026003;28;20040;-70
2022/06/13 11:03:19;;;;;;;4.55;1.30;;;38.40;58.70;;;;;;5020176;28;20041;-70
2022/06/13 11:06:53;;;;;;;2.08;0.90;;;38.80;57.40;;;;;;5021808;28;20044;-70
2022/06/13 11:09:58;;;;;;;3.35;0.95;;;39.20;58.00;;;;;;5024468;28;20048;-69
2022/06/13 11:13:05;;;;;;;2.72;1.08;;;40.40;60.20;;;;;;5020269;28;20049;-69
2022/06/13 11:23:12;;;;;;;2.13;1.20;;;43.30;55.70;;;;;;5026174;28;20057;-69
2022/06/13 11:29:42;;;;;;;2.13;1.02;;;43.40;55.30;;;;;;5024470;28;20050;-69
2022/06/13 11:33:10;;;;;;;4.50;1.23;;;43.90;55.20;;;;;;5016131;28;20040;-69
2022/06/13 11:36:21;;;;;;;2.30;0.80;;;44.50;55.30;;;;;;5019521;28;20405;-69
2022/06/13 11:39:39;;;;;;;2.33;0.98;;;44.40;56.00;;;;;;5033603;28;20487;-69
2022/06/13 11:42:51;;;;;;;2.60;1.08;;;44.30;56.20;;;;;;5021153;28;20451;-69
2022/06/13 11:46:00;;;;;;;1.27;0.90;;;44.60;55.60;;;;;;5026812;28;20060;-69
2022/06/13 11:49:16;;;;;;;2.85;0.82;;;44.50;53.40;;;;;;5021633;28;20065;-70
2022/06/13 11:56:27;;;;;;;1.75;0.88;;;41.00;54.70;;;;;;4984131;28;20629;-70
2022/06/13 11:59:32;;;;;;;5.45;1.10;;;42.20;57.00;;;;;;5017679;28;20041;-69
2022/06/13 12:02:48;;;;;;;2.53;1.00;;;42.50;55.60;;;;;;5028880;28;20507;-69
2022/06/13 12:06:05;;;;;;;1.55;1.10;;;43.20;54.90;;;;;;5026151;28;20036;-67
2022/06/13 12:09:26;;;;;;;3.47;1.10;;;42.30;55.00;;;;;;5024370;28;20036;-68
2022/06/13 12:12:47;;;;;;;1.63;1.02;;;41.50;57.20;;;;;;5024789;28;20388;-68
2022/06/13 12:16:00;;;;;;;2.75;1.08;;;42.00;56.80;;;;;;5026384;28;20044;-69
2022/06/13 12:19:26;;;;;;;3.88;1.30;;;42.20;56.60;;;;;;5029286;28;20048;-68
2022/06/13 12:22:58;;;;;;;6.72;1.35;;;42.20;56.10;;;;;;5022840;28;20483;-69
2022/06/13 12:26:32;;;;;;;3.17;1.10;;;42.30;57.50;;;;;;5025288;28;20048;-68
2022/06/13 12:29:52;;;;;;;4.75;1.00;;;42.60;56.50;;;;;;5019420;28;20040;-68
2022/06/13 12:33:02;;;;;;;1.88;1.00;;;42.40;56.10;;;;;;5025057;28;20057;-70
2022/06/13 12:36:21;;;;;;;1.15;1.00;;;42.30;56.50;;;;;;5024650;28;20384;-68
2022/06/13 12:39:40;;;;;;;2.10;1.20;;;41.10;56.10;;;;;;5026855;28;20056;-68
2022/06/13 12:42:47;;;;;;;4.57;1.23;;;40.10;57.40;;;;;;5024089;28;20044;-68
2022/06/13 12:46:13;;;;;;;3.25;1.25;;;40.50;58.20;;;;;;5027352;28;20040;-70
2022/06/13 12:49:45;;;;;;;3.28;1.00;;;40.50;58.10;;;;;;5023088;28;20091;-68
2022/06/13 12:52:49;;;;;;;3.95;1.00;;;40.80;58.80;;;;;;5022728;28;20036;-68
2022/06/13 12:56:27;;;;;;;5.43;1.30;;;40.90;58.20;;;;;;5027870;28;20396;-69
2022/06/13 12:59:46;;;;;;;2.47;1.35;;;41.20;57.00;;;;;;5036859;28;20048;-69
2022/06/13 13:02:51;;;;;;;4.88;1.10;;;41.50;58.50;;;;;;5022501;28;20041;-70
2022/06/13 13:05:57;;;;;;;3.78;1.02;;;41.20;57.00;;;;;;5021162;28;20044;-69
2022/06/13 13:09:23;;;;;;;6.30;1.20;;;40.70;57.40;;;;;;5024368;28;20048;-68
2022/06/13 13:12:58;;;;;;;2.42;1.20;;;40.60;59.20;;;;;;5018723;28;20066;-69
2022/06/13 13:16:21;;;;;;;2.70;0.90;;;40.40;58.60;;;;;;5017018;28;21183;-69
2022/06/13 13:19:44;;;;;;;3.00;1.50;;;39.90;58.50;;;;;;5018400;28;20064;-68
2022/06/13 13:23:19;;;;;;;3.08;0.85;;;39.80;58.50;;;;;;5025056;28;20041;-69
2022/06/13 13:26:39;;;;;;;2.95;0.95;;;39.90;59.80;;;;;;5020716;28;20048;-68
2022/06/13 13:29:58;;;;;;;3.47;1.33;;;39.30;57.40;;;;;;5020691;28;20487;-69
2022/06/13 13:33:12;;;;;;;1.27;0.90;;;39.60;58.80;;;;;;5019529;28;20064;-68
2022/06/13 13:36:16;;;;;;;5.82;1.17;;;39.90;57.80;;;;;;5023496;28;20044;-67
2022/06/13 13:39:33;;;;;;;2.13;0.90;;;40.10;57.80;;;;;;5022790;28;20060;-69
2022/06/13 13:42:43;;;;;;;1.75;0.93;;;39.60;58.60;;;;;;5022507;28;20048;-68
2022/06/13 13:46:06;;;;;;;;;;;39.00;59.00;;;;;;5021823;28;20048;-68
2022/06/13 13:49:17;;;;;;;4.60;1.10;;;38.80;58.60;;;;;;5028954;28;19916;-66
2022/06/13 13:52:45;;;;;;;2.25;0.95;;;38.70;58.90;;;;;;5022406;28;20053;-72
2022/06/13 13:56:00;;;;;;;3.30;1.00;;;38.30;58.30;;;;;;5025066;28;20041;-71
2022/06/13 13:59:05;;;;;;;1.40;1.17;;;38.10;58.20;;;;;;5027487;28;20499;-70
2022/06/13 14:02:24;;;;;;;2.50;1.10;;;38.00;58.60;;;;;;5024698;28;20697;-69
2022/06/13 14:05:38;;;;;;;3.08;1.08;;;38.00;58.60;;;;;;5017921;28;20037;-70
2022/06/13 14:08:45;;;;;;;3.80;0.93;;;37.80;58.30;;;;;;5023575;28;20045;-69
2022/06/13 14:12:10;;;;;;;1.55;1.00;;;37.50;58.20;;;;;;5028077;28;20056;-69
2022/06/13 14:15:17;;;;;;;5.03;1.25;;;37.40;58.90;;;;;;5023321;28;20377;-70
2022/06/13 14:18:26;;;;;;;1.25;1.00;;;37.20;60.00;;;;;;5018856;28;20052;-68
2022/06/13 14:21:33;;;;;;;3.17;1.23;;;37.20;58.80;;;;;;5021293;28;20044;-69
2022/06/13 14:24:46;;;;;;;2.83;1.20;;;37.00;59.00;;;;;;5023154;28;20063;-69
2022/06/13 14:27:56;;;;;;;3.40;1.17;;;36.90;59.30;;;;;;5022902;28;20041;-70
2022/06/13 14:31:08;;;;;;;5.93;1.25;;;37.00;58.80;;;;;;5025468;28;20051;-69
2022/06/13 14:37:48;;;;;;;2.70;1.23;;;37.10;60.50;;;;;;5015754;28;20385;-68
2022/06/13 14:40:58;;;;;;;3.70;1.27;;;36.50;59.30;;;;;;5018994;28;20044;-69
2022/06/13 14:44:12;;;;;;;3.08;1.00;;;36.20;59.80;;;;;;5023255;28;21199;-69
2022/06/13 14:47:33;;;;;;;4.13;1.35;;;35.80;57.90;;;;;;5026018;28;20056;-69
2022/06/13 14:50:46;;;;;;;4.95;1.00;;;34.10;60.10;;;;;;5021654;28;20040;-70
2022/06/13 14:53:52;;;;;;;3.40;1.20;;;34.60;62.30;;;;;;5023104;28;20049;-69
2022/06/13 14:56:56;;;;;;;4.60;1.35;;;34.80;61.40;;;;;;5023167;28;20045;-69
2022/06/13 15:00:03;;;;;;;5.60;1.05;;;34.80;61.30;;;;;;5013184;28;20056;-70
2022/06/13 15:03:12;;;;;;;4.32;1.05;;;34.80;60.50;;;;;;5013161;28;20049;-70
2022/06/13 15:06:20;;;;;;;2.22;1.20;;;34.90;60.10;;;;;;5022907;28;20052;-67
2022/06/13 15:09:36;;;;;;;5.97;1.13;;;34.10;60.10;;;;;;5024124;28;20041;-67
2022/06/13 15:12:43;;;;;;;1.08;0.98;;;33.70;61.30;;;;;;5024443;28;20068;-68
2022/06/13 15:15:54;;;;;;;2.60;1.10;;;33.10;61.10;;;;;;5026707;28;20041;-66
2022/06/13 15:19:03;;;;;;;2.10;1.25;;;33.40;61.60;;;;;;5013351;28;20488;-67
2022/06/13 15:22:16;;;;;;;3.55;1.05;;;33.40;61.70;;;;;;5027851;28;20032;-68
2022/06/13 15:25:53;;;;;;;4.18;1.27;;;33.60;61.50;;;;;;5028555;28;20530;-68
2022/06/13 15:29:11;;;;;;;3.40;1.15;;;33.70;62.60;;;;;;5013480;28;20510;-68
2022/06/13 15:32:32;;;;;;;3.38;0.90;;;33.80;62.10;;;;;;5030754;28;20048;-68
2022/06/13 15:35:43;;;;;;;1.55;1.10;;;33.80;63.00;;;;;;5031376;28;20479;-68
2022/06/13 15:38:48;;;;;;;1.90;1.13;;;33.80;62.10;;;;;;5025653;28;20045;-69
2022/06/13 15:41:57;;;;;;;8.95;1.15;;;33.60;62.70;;;;;;5029416;28;20646;-68
2022/06/13 15:45:08;;;;;;;7.55;1.23;;;33.40;62.80;;;;;;5031966;28;20048;-68
2022/06/13 15:48:15;;;;;;;4.45;1.20;;;33.30;63.90;;;;;;5028721;28;20056;-69
2022/06/13 15:51:26;;;;;;;2.42;1.13;;;33.10;63.60;;;;;;5029277;28;20044;-67
2022/06/13 15:54:35;;;;;;;;;;;32.90;63.50;;;;;;5013111;28;20662;-69
2022/06/13 15:58:02;;;;;;;4.53;1.20;;;32.80;63.80;;;;;;5026707;28;19917;-69
2022/06/13 16:01:09;;;;;;;2.80;1.17;;;32.70;63.50;;;;;;5019873;28;20040;-68
2022/06/13 16:04:17;;;;;;;4.90;1.00;;;32.50;63.60;;;;;;5024997;28;20044;-67
2022/06/13 16:07:30;;;;;;;4.72;0.95;;;32.50;63.50;;;;;;5027568;28;20060;-67
2022/06/13 16:10:40;;;;;;;2.70;1.30;;;32.40;64.10;;;;;;5020809;28;20044;-67
2022/06/13 16:13:54;;;;;;;2.88;1.00;;;32.30;63.40;;;;;;5021243;28;20056;-66
2022/06/13 16:17:04;;;;;;;4.00;1.10;;;32.30;63.10;;;;;;5027205;28;20047;-69
2022/06/13 16:20:27;;;;;;;1.70;0.90;;;32.10;63.40;;;;;;5016557;28;20037;-66
2022/06/13 16:23:34;;;;;;;7.43;0.90;;;32.00;62.40;;;;;;5017036;28;20045;-69
2022/06/13 16:26:40;;;;;;;5.07;1.33;;;32.00;63.60;;;;;;5027613;28;20052;-67
2022/06/13 16:29:50;;;;;;;3.30;1.00;;;32.00;64.20;;;;;;5030534;28;20040;-68
2022/06/13 16:32:54;;;;;;;3.90;1.40;;;31.90;63.80;;;;;;5018609;28;20349;-69
2022/06/13 16:36:04;;;;;;;4.15;1.08;;;32.00;63.80;;;;;;5011511;28;20507;-68
2022/06/13 16:39:28;;;;;;;1.50;1.00;;;32.00;64.10;;;;;;5011877;28;20045;-68
2022/06/13 16:42:32;;;;;;;2.38;1.20;;;31.90;63.40;;;;;;5024344;28;20048;-68
2022/06/13 16:45:36;;;;;;;3.03;1.35;;;31.70;63.80;;;;;;5026473;28;20409;-68
2022/06/13 16:49:01;;;;;;;3.85;1.15;;;31.60;63.80;;;;;;5030485;28;20048;-66
2022/06/13 16:52:14;;;;;;;4.15;1.35;;;31.50;63.90;;;;;;5024347;28;20055;-69
2022/06/13 16:55:26;;;;;;;4.68;1.50;;;31.40;65.60;;;;;;5024432;28;20068;-69
2022/06/13 16:58:43;;;;;;;4.23;1.60;;;31.20;63.90;;;;;;5014349;28;20044;-70
2022/06/13 17:01:51;;;;;;;6.22;1.65;;;31.00;65.40;;;;;;5019862;28;20041;-70
2022/06/13 17:04:57;;;;;;;6.45;1.80;;;30.90;65.70;;;;;;5015117;28;20049;-69
2022/06/13 17:08:13;;;;;;;7.72;1.80;;;30.80;65.90;;;;;;5010404;28;20049;-69
2022/06/13 17:11:17;;;;;;;4.22;1.70;;;30.70;66.50;;;;;;5011102;28;20048;-68
2022/06/13 17:14:36;;;;;;;3.10;1.63;;;30.60;66.00;;;;;;5028437;28;20048;-70
2022/06/13 17:17:41;;;;;;;3.25;1.80;;;30.50;67.00;;;;;;5029521;28;20041;-68
2022/06/13 17:20:49;;;;;;;4.20;1.60;;;30.40;67.10;;;;;;5030283;28;20049;-69